sensor_id;sensor_type;location;lat;lon;timestamp;P1;durP1;ratioP1;P2;durP2;ratioP2
67248;SDS011;63247;54.300;18.592;2023-04-08T00:00:32;50.63;;;19.47;;
67248;SDS011;63247;54.300;18.592;2023-04-08T00:02:58;45.97;;;18.25;;
67248;SDS011;63247;54.300;18.592;2023-04-08T00:05:23;45.10;;;16.77;;
67248;SDS011;63247;54.300;18.592;2023-04-08T00:07:49;46.37;;;16.70;;
67248;SDS011;63247;54.300;18.592;2023-04-08T00:10:15;47.47;;;17.25;;
67248;SDS011;63247;54.300;18.592;2023-04-08T00:12:40;47.27;;;17.73;;
67248;SDS011;63247;54.300;18.592;2023-04-08T00:15:06;44.73;;;16.57;;
67248;SDS011;63247;54.300;18.592;2023-04-08T00:17:31;40.85;;;16.77;;
67248;SDS011;63247;54.300;18.592;2023-04-08T00:19:57;46.08;;;17.35;;
67248;SDS011;63247;54.300;18.592;2023-04-08T00:22:22;48.37;;;17.83;;
67248;SDS011;63247;54.300;18.592;2023-04-08T00:24:48;50.67;;;17.63;;
67248;SDS011;63247;54.300;18.592;2023-04-08T00:27:13;56.70;;;21.13;;
67248;SDS011;63247;54.300;18.592;2023-04-08T00:29:39;59.40;;;21.67;;
67248;SDS011;63247;54.300;18.592;2023-04-08T00:32:04;47.40;;;17.83;;
67248;SDS011;63247;54.300;18.592;2023-04-08T00:34:30;42.67;;;17.98;;
67248;SDS011;63247;54.300;18.592;2023-04-08T00:36:55;48.00;;;18.60;;
67248;SDS011;63247;54.300;18.592;2023-04-08T00:39:21;43.88;;;17.67;;
67248;SDS011;63247;54.300;18.592;2023-04-08T00:41:47;47.78;;;17.33;;
67248;SDS011;63247;54.300;18.592;2023-04-08T00:44:12;41.13;;;17.43;;
67248;SDS011;63247;54.300;18.592;2023-04-08T00:46:38;54.07;;;18.20;;
67248;SDS011;63247;54.300;18.592;2023-04-08T00:49:04;48.90;;;17.40;;
67248;SDS011;63247;54.300;18.592;2023-04-08T00:51:31;48.60;;;19.27;;
67248;SDS011;63247;54.300;18.592;2023-04-08T00:53:57;52.70;;;18.70;;
67248;SDS011;63247;54.300;18.592;2023-04-08T00:56:24;53.70;;;19.08;;
67248;SDS011;63247;54.300;18.592;2023-04-08T00:58:51;51.17;;;19.30;;
67248;SDS011;63247;54.300;18.592;2023-04-08T01:01:27;53.05;;;20.08;;
67248;SDS011;63247;54.300;18.592;2023-04-08T01:04:12;56.75;;;20.60;;
67248;SDS011;63247;54.300;18.592;2023-04-08T01:06:40;51.87;;;20.07;;
67248;SDS011;63247;54.300;18.592;2023-04-08T01:09:18;53.47;;;19.92;;
67248;SDS011;63247;54.300;18.592;2023-04-08T01:11:48;53.35;;;19.60;;
67248;SDS011;63247;54.300;18.592;2023-04-08T01:14:16;54.50;;;19.38;;
67248;SDS011;63247;54.300;18.592;2023-04-08T01:16:45;52.65;;;19.95;;
67248;SDS011;63247;54.300;18.592;2023-04-08T01:19:22;55.07;;;20.40;;
67248;SDS011;63247;54.300;18.592;2023-04-08T01:21:53;54.03;;;19.70;;
67248;SDS011;63247;54.300;18.592;2023-04-08T01:24:27;55.53;;;20.40;;
67248;SDS011;63247;54.300;18.592;2023-04-08T01:26:55;51.03;;;20.05;;
67248;SDS011;63247;54.300;18.592;2023-04-08T01:29:23;61.75;;;20.55;;
67248;SDS011;63247;54.300;18.592;2023-04-08T01:31:50;58.70;;;20.30;;
67248;SDS011;63247;54.300;18.592;2023-04-08T01:34:18;56.05;;;20.70;;
67248;SDS011;63247;54.300;18.592;2023-04-08T01:36:45;57.20;;;19.40;;
67248;SDS011;63247;54.300;18.592;2023-04-08T01:39:11;58.63;;;21.27;;
67248;SDS011;63247;54.300;18.592;2023-04-08T01:41:37;56.97;;;20.50;;
67248;SDS011;63247;54.300;18.592;2023-04-08T01:44:03;50.73;;;21.27;;
67248;SDS011;63247;54.300;18.592;2023-04-08T01:46:30;55.88;;;21.50;;
67248;SDS011;63247;54.300;18.592;2023-04-08T01:48:56;54.05;;;20.00;;
67248;SDS011;63247;54.300;18.592;2023-04-08T01:51:23;55.03;;;23.17;;
67248;SDS011;63247;54.300;18.592;2023-04-08T01:53:51;59.85;;;22.98;;
67248;SDS011;63247;54.300;18.592;2023-04-08T01:56:16;56.67;;;21.10;;
67248;SDS011;63247;54.300;18.592;2023-04-08T01:58:47;62.80;;;23.70;;
67248;SDS011;63247;54.300;18.592;2023-04-08T02:01:17;58.40;;;21.93;;
67248;SDS011;63247;54.300;18.592;2023-04-08T02:03:45;59.15;;;21.65;;
67248;SDS011;63247;54.300;18.592;2023-04-08T02:06:11;62.60;;;22.33;;
67248;SDS011;63247;54.300;18.592;2023-04-08T02:08:37;55.13;;;21.17;;
67248;SDS011;63247;54.300;18.592;2023-04-08T02:11:02;57.90;;;20.48;;
67248;SDS011;63247;54.300;18.592;2023-04-08T02:13:28;68.57;;;21.60;;
67248;SDS011;63247;54.300;18.592;2023-04-08T02:16:28;66.85;;;22.23;;
67248;SDS011;63247;54.300;18.592;2023-04-08T02:18:59;63.88;;;22.85;;
67248;SDS011;63247;54.300;18.592;2023-04-08T02:21:51;68.45;;;23.27;;
67248;SDS011;63247;54.300;18.592;2023-04-08T02:24:21;66.10;;;23.07;;
67248;SDS011;63247;54.300;18.592;2023-04-08T02:26:48;68.63;;;22.98;;
67248;SDS011;63247;54.300;18.592;2023-04-08T02:29:16;68.03;;;23.65;;
67248;SDS011;63247;54.300;18.592;2023-04-08T02:31:42;70.03;;;24.35;;
67248;SDS011;63247;54.300;18.592;2023-04-08T02:34:11;72.33;;;25.00;;
67248;SDS011;63247;54.300;18.592;2023-04-08T02:36:38;74.07;;;25.08;;
67248;SDS011;63247;54.300;18.592;2023-04-08T02:39:05;78.05;;;26.05;;
67248;SDS011;63247;54.300;18.592;2023-04-08T02:41:30;76.13;;;25.15;;
67248;SDS011;63247;54.300;18.592;2023-04-08T02:43:56;79.77;;;25.40;;
67248;SDS011;63247;54.300;18.592;2023-04-08T02:46:22;83.95;;;26.60;;
67248;SDS011;63247;54.300;18.592;2023-04-08T02:48:47;78.57;;;25.50;;
67248;SDS011;63247;54.300;18.592;2023-04-08T02:51:13;76.43;;;25.17;;
67248;SDS011;63247;54.300;18.592;2023-04-08T02:53:39;74.90;;;25.67;;
67248;SDS011;63247;54.300;18.592;2023-04-08T02:56:05;79.90;;;26.30;;
67248;SDS011;63247;54.300;18.592;2023-04-08T02:58:30;74.40;;;25.98;;
67248;SDS011;63247;54.300;18.592;2023-04-08T03:00:56;84.27;;;27.07;;
67248;SDS011;63247;54.300;18.592;2023-04-08T03:03:21;75.90;;;26.23;;
67248;SDS011;63247;54.300;18.592;2023-04-08T03:05:53;76.47;;;25.90;;
67248;SDS011;63247;54.300;18.592;2023-04-08T03:08:19;76.43;;;25.37;;
67248;SDS011;63247;54.300;18.592;2023-04-08T03:10:45;71.82;;;25.33;;
67248;SDS011;63247;54.300;18.592;2023-04-08T03:13:10;76.03;;;25.33;;
67248;SDS011;63247;54.300;18.592;2023-04-08T03:15:35;75.63;;;25.60;;
67248;SDS011;63247;54.300;18.592;2023-04-08T03:18:02;77.50;;;25.73;;
67248;SDS011;63247;54.300;18.592;2023-04-08T03:20:28;78.95;;;26.52;;
67248;SDS011;63247;54.300;18.592;2023-04-08T03:22:53;79.80;;;26.67;;
67248;SDS011;63247;54.300;18.592;2023-04-08T03:25:19;80.67;;;26.37;;
67248;SDS011;63247;54.300;18.592;2023-04-08T03:27:44;81.22;;;27.17;;
67248;SDS011;63247;54.300;18.592;2023-04-08T03:30:10;83.83;;;27.70;;
67248;SDS011;63247;54.300;18.592;2023-04-08T03:32:35;84.13;;;27.23;;
67248;SDS011;63247;54.300;18.592;2023-04-08T03:35:01;85.35;;;27.17;;
67248;SDS011;63247;54.300;18.592;2023-04-08T03:37:26;86.80;;;28.02;;
67248;SDS011;63247;54.300;18.592;2023-04-08T03:39:52;89.23;;;28.30;;
67248;SDS011;63247;54.300;18.592;2023-04-08T03:42:18;81.20;;;27.15;;
67248;SDS011;63247;54.300;18.592;2023-04-08T03:44:44;80.67;;;27.57;;
67248;SDS011;63247;54.300;18.592;2023-04-08T03:47:09;86.87;;;27.77;;
67248;SDS011;63247;54.300;18.592;2023-04-08T03:49:35;86.53;;;27.60;;
67248;SDS011;63247;54.300;18.592;2023-04-08T03:52:00;81.60;;;27.97;;
67248;SDS011;63247;54.300;18.592;2023-04-08T03:54:26;79.50;;;26.92;;
67248;SDS011;63247;54.300;18.592;2023-04-08T03:56:51;82.07;;;26.93;;
67248;SDS011;63247;54.300;18.592;2023-04-08T03:59:16;78.70;;;26.53;;
67248;SDS011;63247;54.300;18.592;2023-04-08T04:01:42;80.80;;;26.40;;
67248;SDS011;63247;54.300;18.592;2023-04-08T04:04:07;86.57;;;28.43;;
67248;SDS011;63247;54.300;18.592;2023-04-08T04:06:33;75.40;;;26.15;;
67248;SDS011;63247;54.300;18.592;2023-04-08T04:08:58;80.60;;;26.33;;
67248;SDS011;63247;54.300;18.592;2023-04-08T04:11:23;84.10;;;25.63;;
67248;SDS011;63247;54.300;18.592;2023-04-08T04:13:50;76.78;;;25.63;;
67248;SDS011;63247;54.300;18.592;2023-04-08T04:16:15;91.40;;;28.67;;
67248;SDS011;63247;54.300;18.592;2023-04-08T04:18:41;104.13;;;28.40;;
67248;SDS011;63247;54.300;18.592;2023-04-08T04:21:06;108.68;;;27.75;;
67248;SDS011;63247;54.300;18.592;2023-04-08T04:23:32;125.97;;;26.23;;
67248;SDS011;63247;54.300;18.592;2023-04-08T04:25:58;118.37;;;27.37;;
67248;SDS011;63247;54.300;18.592;2023-04-08T04:28:23;138.88;;;28.30;;
67248;SDS011;63247;54.300;18.592;2023-04-08T04:30:48;120.22;;;27.38;;
67248;SDS011;63247;54.300;18.592;2023-04-08T04:33:14;75.60;;;25.40;;
67248;SDS011;63247;54.300;18.592;2023-04-08T04:35:39;77.37;;;25.83;;
67248;SDS011;63247;54.300;18.592;2023-04-08T04:38:05;83.47;;;26.17;;
67248;SDS011;63247;54.300;18.592;2023-04-08T04:40:37;78.45;;;26.15;;
67248;SDS011;63247;54.300;18.592;2023-04-08T04:43:03;86.95;;;27.27;;
67248;SDS011;63247;54.300;18.592;2023-04-08T04:45:29;84.07;;;28.35;;
67248;SDS011;63247;54.300;18.592;2023-04-08T04:47:54;84.53;;;27.10;;
67248;SDS011;63247;54.300;18.592;2023-04-08T04:50:20;77.07;;;26.70;;
67248;SDS011;63247;54.300;18.592;2023-04-08T04:52:45;79.93;;;27.00;;
67248;SDS011;63247;54.300;18.592;2023-04-08T04:55:10;85.63;;;29.20;;
67248;SDS011;63247;54.300;18.592;2023-04-08T04:57:36;89.40;;;30.25;;
67248;SDS011;63247;54.300;18.592;2023-04-08T05:00:01;89.50;;;28.43;;
67248;SDS011;63247;54.300;18.592;2023-04-08T05:02:27;90.55;;;29.20;;
67248;SDS011;63247;54.300;18.592;2023-04-08T05:04:53;90.07;;;30.67;;
67248;SDS011;63247;54.300;18.592;2023-04-08T05:07:19;96.07;;;30.27;;
67248;SDS011;63247;54.300;18.592;2023-04-08T05:09:45;92.82;;;30.27;;
67248;SDS011;63247;54.300;18.592;2023-04-08T05:12:11;86.80;;;30.00;;
67248;SDS011;63247;54.300;18.592;2023-04-08T05:14:36;83.32;;;29.08;;
67248;SDS011;63247;54.300;18.592;2023-04-08T05:17:02;96.27;;;30.63;;
67248;SDS011;63247;54.300;18.592;2023-04-08T05:19:27;93.73;;;31.53;;
67248;SDS011;63247;54.300;18.592;2023-04-08T05:21:52;87.83;;;30.27;;
67248;SDS011;63247;54.300;18.592;2023-04-08T05:24:18;84.37;;;31.07;;
67248;SDS011;63247;54.300;18.592;2023-04-08T05:26:43;91.05;;;31.02;;
67248;SDS011;63247;54.300;18.592;2023-04-08T05:29:09;86.05;;;30.35;;
67248;SDS011;63247;54.300;18.592;2023-04-08T05:31:34;97.43;;;32.60;;
67248;SDS011;63247;54.300;18.592;2023-04-08T05:33:59;95.13;;;31.30;;
67248;SDS011;63247;54.300;18.592;2023-04-08T05:36:25;96.93;;;30.67;;
67248;SDS011;63247;54.300;18.592;2023-04-08T05:38:51;95.22;;;31.80;;
67248;SDS011;63247;54.300;18.592;2023-04-08T05:41:16;94.53;;;32.00;;
67248;SDS011;63247;54.300;18.592;2023-04-08T05:43:42;99.57;;;33.20;;
67248;SDS011;63247;54.300;18.592;2023-04-08T05:46:07;106.27;;;34.63;;
67248;SDS011;63247;54.300;18.592;2023-04-08T05:48:34;104.72;;;35.20;;
67248;SDS011;63247;54.300;18.592;2023-04-08T05:51:00;104.68;;;35.75;;
67248;SDS011;63247;54.300;18.592;2023-04-08T05:53:26;104.27;;;35.83;;
67248;SDS011;63247;54.300;18.592;2023-04-08T05:55:51;105.68;;;36.55;;
67248;SDS011;63247;54.300;18.592;2023-04-08T05:58:17;110.50;;;36.07;;
67248;SDS011;63247;54.300;18.592;2023-04-08T06:00:42;103.30;;;34.90;;
67248;SDS011;63247;54.300;18.592;2023-04-08T06:03:07;110.43;;;34.80;;
67248;SDS011;63247;54.300;18.592;2023-04-08T06:05:33;102.90;;;33.87;;
67248;SDS011;63247;54.300;18.592;2023-04-08T06:07:58;106.65;;;33.05;;
67248;SDS011;63247;54.300;18.592;2023-04-08T06:10:23;100.40;;;32.70;;
67248;SDS011;63247;54.300;18.592;2023-04-08T06:12:49;94.17;;;32.93;;
67248;SDS011;63247;54.300;18.592;2023-04-08T06:15:14;99.57;;;30.47;;
67248;SDS011;63247;54.300;18.592;2023-04-08T06:17:40;95.07;;;31.00;;
67248;SDS011;63247;54.300;18.592;2023-04-08T06:20:06;90.03;;;29.10;;
67248;SDS011;63247;54.300;18.592;2023-04-08T06:22:33;91.63;;;28.92;;
67248;SDS011;63247;54.300;18.592;2023-04-08T06:25:00;93.47;;;29.70;;
67248;SDS011;63247;54.300;18.592;2023-04-08T06:27:25;90.87;;;28.20;;
67248;SDS011;63247;54.300;18.592;2023-04-08T06:29:51;85.35;;;27.85;;
67248;SDS011;63247;54.300;18.592;2023-04-08T06:32:17;89.70;;;28.17;;
67248;SDS011;63247;54.300;18.592;2023-04-08T06:34:46;77.93;;;26.38;;
67248;SDS011;63247;54.300;18.592;2023-04-08T06:37:12;85.35;;;27.20;;
67248;SDS011;63247;54.300;18.592;2023-04-08T06:39:37;85.17;;;28.17;;
67248;SDS011;63247;54.300;18.592;2023-04-08T06:42:03;83.97;;;26.97;;
67248;SDS011;63247;54.300;18.592;2023-04-08T06:44:28;81.47;;;26.77;;
67248;SDS011;63247;54.300;18.592;2023-04-08T06:46:53;76.57;;;27.23;;
67248;SDS011;63247;54.300;18.592;2023-04-08T06:49:19;76.45;;;26.50;;
67248;SDS011;63247;54.300;18.592;2023-04-08T06:51:45;74.57;;;26.58;;
67248;SDS011;63247;54.300;18.592;2023-04-08T06:54:10;67.28;;;24.05;;
67248;SDS011;63247;54.300;18.592;2023-04-08T06:56:36;69.40;;;24.90;;
67248;SDS011;63247;54.300;18.592;2023-04-08T06:59:02;62.33;;;24.37;;
67248;SDS011;63247;54.300;18.592;2023-04-08T07:01:28;59.95;;;24.17;;
67248;SDS011;63247;54.300;18.592;2023-04-08T07:03:54;63.47;;;22.80;;
67248;SDS011;63247;54.300;18.592;2023-04-08T07:06:20;58.75;;;21.77;;
67248;SDS011;63247;54.300;18.592;2023-04-08T07:08:46;56.67;;;21.27;;
67248;SDS011;63247;54.300;18.592;2023-04-08T07:11:11;51.75;;;20.85;;
67248;SDS011;63247;54.300;18.592;2023-04-08T07:13:37;49.43;;;20.47;;
67248;SDS011;63247;54.300;18.592;2023-04-08T07:16:02;47.73;;;20.80;;
67248;SDS011;63247;54.300;18.592;2023-04-08T07:18:28;50.65;;;20.00;;
67248;SDS011;63247;54.300;18.592;2023-04-08T07:20:53;53.57;;;21.47;;
67248;SDS011;63247;54.300;18.592;2023-04-08T07:23:19;50.90;;;21.00;;
67248;SDS011;63247;54.300;18.592;2023-04-08T07:25:45;48.15;;;21.02;;
67248;SDS011;63247;54.300;18.592;2023-04-08T07:28:11;52.28;;;21.55;;
67248;SDS011;63247;54.300;18.592;2023-04-08T07:30:37;46.70;;;19.87;;
67248;SDS011;63247;54.300;18.592;2023-04-08T07:33:02;52.90;;;21.40;;
67248;SDS011;63247;54.300;18.592;2023-04-08T07:35:28;50.00;;;21.73;;
67248;SDS011;63247;54.300;18.592;2023-04-08T07:37:53;53.88;;;21.00;;
67248;SDS011;63247;54.300;18.592;2023-04-08T07:40:19;48.70;;;20.33;;
67248;SDS011;63247;54.300;18.592;2023-04-08T07:42:44;50.97;;;20.70;;
67248;SDS011;63247;54.300;18.592;2023-04-08T07:45:10;51.13;;;20.95;;
67248;SDS011;63247;54.300;18.592;2023-04-08T07:47:36;52.40;;;21.23;;
67248;SDS011;63247;54.300;18.592;2023-04-08T07:50:01;50.38;;;20.25;;
67248;SDS011;63247;54.300;18.592;2023-04-08T07:52:29;50.40;;;20.05;;
67248;SDS011;63247;54.300;18.592;2023-04-08T07:54:55;46.47;;;20.10;;
67248;SDS011;63247;54.300;18.592;2023-04-08T07:57:20;51.63;;;20.57;;
67248;SDS011;63247;54.300;18.592;2023-04-08T07:59:46;52.17;;;20.38;;
67248;SDS011;63247;54.300;18.592;2023-04-08T08:02:11;47.77;;;20.80;;
67248;SDS011;63247;54.300;18.592;2023-04-08T08:04:37;50.83;;;20.27;;
67248;SDS011;63247;54.300;18.592;2023-04-08T08:07:02;50.07;;;21.30;;
67248;SDS011;63247;54.300;18.592;2023-04-08T08:09:27;53.87;;;22.20;;
67248;SDS011;63247;54.300;18.592;2023-04-08T08:11:53;53.43;;;22.77;;
67248;SDS011;63247;54.300;18.592;2023-04-08T08:14:18;48.58;;;21.73;;
67248;SDS011;63247;54.300;18.592;2023-04-08T08:16:44;50.90;;;21.67;;
67248;SDS011;63247;54.300;18.592;2023-04-08T08:19:09;48.57;;;21.43;;
67248;SDS011;63247;54.300;18.592;2023-04-08T08:21:36;45.95;;;19.95;;
67248;SDS011;63247;54.300;18.592;2023-04-08T08:24:03;42.22;;;19.25;;
67248;SDS011;63247;54.300;18.592;2023-04-08T08:26:29;44.37;;;18.73;;
67248;SDS011;63247;54.300;18.592;2023-04-08T08:28:54;43.77;;;19.83;;
67248;SDS011;63247;54.300;18.592;2023-04-08T08:31:20;43.10;;;19.55;;
67248;SDS011;63247;54.300;18.592;2023-04-08T08:33:45;44.63;;;18.50;;
67248;SDS011;63247;54.300;18.592;2023-04-08T08:36:11;37.23;;;17.90;;
67248;SDS011;63247;54.300;18.592;2023-04-08T08:38:37;36.58;;;17.75;;
67248;SDS011;63247;54.300;18.592;2023-04-08T08:41:02;37.90;;;17.37;;
67248;SDS011;63247;54.300;18.592;2023-04-08T08:43:28;37.05;;;17.42;;
67248;SDS011;63247;54.300;18.592;2023-04-08T08:45:57;35.13;;;16.80;;
67248;SDS011;63247;54.300;18.592;2023-04-08T08:48:24;33.60;;;16.80;;
67248;SDS011;63247;54.300;18.592;2023-04-08T08:50:49;33.47;;;15.90;;
67248;SDS011;63247;54.300;18.592;2023-04-08T08:53:15;32.83;;;16.20;;
67248;SDS011;63247;54.300;18.592;2023-04-08T08:55:41;29.73;;;14.90;;
67248;SDS011;63247;54.300;18.592;2023-04-08T08:58:07;33.53;;;15.43;;
67248;SDS011;63247;54.300;18.592;2023-04-08T09:00:33;34.28;;;16.30;;
67248;SDS011;63247;54.300;18.592;2023-04-08T09:03:18;28.60;;;14.43;;
67248;SDS011;63247;54.300;18.592;2023-04-08T09:06:03;31.17;;;15.30;;
67248;SDS011;63247;54.300;18.592;2023-04-08T09:08:35;27.17;;;15.02;;
67248;SDS011;63247;54.300;18.592;2023-04-08T09:11:17;26.33;;;13.50;;
67248;SDS011;63247;54.300;18.592;2023-04-08T09:13:44;23.02;;;13.30;;
67248;SDS011;63247;54.300;18.592;2023-04-08T09:16:11;25.13;;;13.10;;
67248;SDS011;63247;54.300;18.592;2023-04-08T09:18:42;23.65;;;13.13;;
67248;SDS011;63247;54.300;18.592;2023-04-08T09:21:09;25.92;;;13.60;;
67248;SDS011;63247;54.300;18.592;2023-04-08T09:23:48;25.40;;;14.43;;
67248;SDS011;63247;54.300;18.592;2023-04-08T09:29:00;27.98;;;14.48;;
67248;SDS011;63247;54.300;18.592;2023-04-08T09:31:31;27.65;;;15.55;;
67248;SDS011;63247;54.300;18.592;2023-04-08T09:34:23;24.20;;;14.00;;
67248;SDS011;63247;54.300;18.592;2023-04-08T09:36:48;24.38;;;13.85;;
67248;SDS011;63247;54.300;18.592;2023-04-08T09:39:14;27.15;;;15.52;;
67248;SDS011;63247;54.300;18.592;2023-04-08T09:41:41;25.05;;;14.25;;
67248;SDS011;63247;54.300;18.592;2023-04-08T09:44:07;26.35;;;13.23;;
67248;SDS011;63247;54.300;18.592;2023-04-08T09:49:13;24.40;;;13.45;;
67248;SDS011;63247;54.300;18.592;2023-04-08T09:57:21;20.33;;;11.07;;
67248;SDS011;63247;54.300;18.592;2023-04-08T10:00:15;23.48;;;12.88;;
67248;SDS011;63247;54.300;18.592;2023-04-08T10:05:45;20.13;;;11.87;;
67248;SDS011;63247;54.300;18.592;2023-04-08T10:08:11;19.98;;;11.95;;
67248;SDS011;63247;54.300;18.592;2023-04-08T10:10:37;21.13;;;10.68;;
67248;SDS011;63247;54.300;18.592;2023-04-08T10:13:05;17.80;;;10.07;;
67248;SDS011;63247;54.300;18.592;2023-04-08T10:15:32;17.10;;;10.18;;
67248;SDS011;63247;54.300;18.592;2023-04-08T10:22:58;17.33;;;8.48;;
67248;SDS011;63247;54.300;18.592;2023-04-08T10:27:56;20.20;;;8.57;;
67248;SDS011;63247;54.300;18.592;2023-04-08T10:32:55;17.95;;;9.20;;
67248;SDS011;63247;54.300;18.592;2023-04-08T10:35:33;20.67;;;10.10;;
67248;SDS011;63247;54.300;18.592;2023-04-08T10:38:00;18.85;;;9.75;;
67248;SDS011;63247;54.300;18.592;2023-04-08T10:40:26;18.63;;;10.00;;
67248;SDS011;63247;54.300;18.592;2023-04-08T10:42:55;18.48;;;9.60;;
67248;SDS011;63247;54.300;18.592;2023-04-08T10:45:21;21.45;;;10.30;;
67248;SDS011;63247;54.300;18.592;2023-04-08T10:47:47;22.37;;;11.53;;
67248;SDS011;63247;54.300;18.592;2023-04-08T10:50:13;18.40;;;9.53;;
67248;SDS011;63247;54.300;18.592;2023-04-08T10:52:49;17.33;;;9.40;;
67248;SDS011;63247;54.300;18.592;2023-04-08T10:55:21;14.23;;;7.30;;
67248;SDS011;63247;54.300;18.592;2023-04-08T10:57:48;13.95;;;7.22;;
67248;SDS011;63247;54.300;18.592;2023-04-08T11:00:18;15.43;;;7.60;;
67248;SDS011;63247;54.300;18.592;2023-04-08T11:03:00;16.03;;;8.23;;
67248;SDS011;63247;54.300;18.592;2023-04-08T11:05:27;19.77;;;8.65;;
67248;SDS011;63247;54.300;18.592;2023-04-08T11:07:52;15.67;;;8.27;;
67248;SDS011;63247;54.300;18.592;2023-04-08T11:10:18;17.10;;;8.20;;
67248;SDS011;63247;54.300;18.592;2023-04-08T11:12:44;16.40;;;8.43;;
67248;SDS011;63247;54.300;18.592;2023-04-08T11:15:09;15.82;;;8.13;;
67248;SDS011;63247;54.300;18.592;2023-04-08T11:17:37;13.73;;;7.27;;
67248;SDS011;63247;54.300;18.592;2023-04-08T11:20:02;14.82;;;8.45;;
67248;SDS011;63247;54.300;18.592;2023-04-08T11:22:30;15.77;;;8.25;;
67248;SDS011;63247;54.300;18.592;2023-04-08T11:24:57;13.13;;;7.70;;
67248;SDS011;63247;54.300;18.592;2023-04-08T11:27:23;14.35;;;7.38;;
67248;SDS011;63247;54.300;18.592;2023-04-08T11:29:50;17.90;;;9.10;;
67248;SDS011;63247;54.300;18.592;2023-04-08T11:32:17;17.02;;;8.57;;
67248;SDS011;63247;54.300;18.592;2023-04-08T11:34:43;20.40;;;8.77;;
67248;SDS011;63247;54.300;18.592;2023-04-08T11:37:11;16.60;;;8.97;;
67248;SDS011;63247;54.300;18.592;2023-04-08T11:39:41;16.55;;;9.00;;
67248;SDS011;63247;54.300;18.592;2023-04-08T11:42:07;16.03;;;8.67;;
67248;SDS011;63247;54.300;18.592;2023-04-08T11:44:33;16.83;;;7.88;;
67248;SDS011;63247;54.300;18.592;2023-04-08T11:46:59;15.13;;;8.23;;
67248;SDS011;63247;54.300;18.592;2023-04-08T11:49:26;15.97;;;8.73;;
67248;SDS011;63247;54.300;18.592;2023-04-08T11:51:53;16.00;;;8.95;;
67248;SDS011;63247;54.300;18.592;2023-04-08T11:54:26;14.25;;;8.20;;
67248;SDS011;63247;54.300;18.592;2023-04-08T11:56:55;15.68;;;8.20;;
67248;SDS011;63247;54.300;18.592;2023-04-08T11:59:22;16.73;;;8.48;;
67248;SDS011;63247;54.300;18.592;2023-04-08T12:01:48;15.18;;;8.30;;
67248;SDS011;63247;54.300;18.592;2023-04-08T12:04:15;17.58;;;8.52;;
67248;SDS011;63247;54.300;18.592;2023-04-08T12:06:40;15.87;;;8.40;;
67248;SDS011;63247;54.300;18.592;2023-04-08T12:09:07;16.45;;;8.82;;
67248;SDS011;63247;54.300;18.592;2023-04-08T12:11:33;15.05;;;8.80;;
67248;SDS011;63247;54.300;18.592;2023-04-08T12:13:58;16.40;;;9.23;;
67248;SDS011;63247;54.300;18.592;2023-04-08T12:16:24;16.53;;;8.73;;
67248;SDS011;63247;54.300;18.592;2023-04-08T12:18:49;17.75;;;8.75;;
67248;SDS011;63247;54.300;18.592;2023-04-08T12:21:15;15.50;;;7.88;;
67248;SDS011;63247;54.300;18.592;2023-04-08T12:23:40;16.00;;;8.60;;
67248;SDS011;63247;54.300;18.592;2023-04-08T12:26:06;15.13;;;8.60;;
67248;SDS011;63247;54.300;18.592;2023-04-08T12:28:32;14.77;;;8.95;;
67248;SDS011;63247;54.300;18.592;2023-04-08T12:30:59;15.05;;;8.45;;
67248;SDS011;63247;54.300;18.592;2023-04-08T12:33:24;17.07;;;8.97;;
67248;SDS011;63247;54.300;18.592;2023-04-08T12:35:49;16.33;;;8.77;;
67248;SDS011;63247;54.300;18.592;2023-04-08T12:38:15;15.63;;;7.13;;
67248;SDS011;63247;54.300;18.592;2023-04-08T12:40:41;14.80;;;8.20;;
67248;SDS011;63247;54.300;18.592;2023-04-08T12:43:06;15.60;;;8.37;;
67248;SDS011;63247;54.300;18.592;2023-04-08T12:45:32;17.67;;;8.30;;
67248;SDS011;63247;54.300;18.592;2023-04-08T12:47:57;14.20;;;7.87;;
67248;SDS011;63247;54.300;18.592;2023-04-08T12:50:23;14.87;;;7.93;;
67248;SDS011;63247;54.300;18.592;2023-04-08T12:52:48;14.00;;;7.40;;
67248;SDS011;63247;54.300;18.592;2023-04-08T12:55:13;13.80;;;7.07;;
67248;SDS011;63247;54.300;18.592;2023-04-08T12:57:39;14.37;;;7.10;;
67248;SDS011;63247;54.300;18.592;2023-04-08T13:00:04;13.98;;;6.97;;
67248;SDS011;63247;54.300;18.592;2023-04-08T13:02:31;13.80;;;6.68;;
67248;SDS011;63247;54.300;18.592;2023-04-08T13:04:56;14.48;;;7.22;;
67248;SDS011;63247;54.300;18.592;2023-04-08T13:07:21;15.00;;;8.38;;
67248;SDS011;63247;54.300;18.592;2023-04-08T13:09:47;20.13;;;9.83;;
67248;SDS011;63247;54.300;18.592;2023-04-08T13:12:13;22.25;;;10.52;;
67248;SDS011;63247;54.300;18.592;2023-04-08T13:14:40;23.03;;;11.77;;
67248;SDS011;63247;54.300;18.592;2023-04-08T13:17:05;21.42;;;11.60;;
67248;SDS011;63247;54.300;18.592;2023-04-08T13:19:31;23.30;;;12.00;;
67248;SDS011;63247;54.300;18.592;2023-04-08T13:21:56;19.97;;;9.67;;
67248;SDS011;63247;54.300;18.592;2023-04-08T13:24:21;20.77;;;10.93;;
67248;SDS011;63247;54.300;18.592;2023-04-08T13:26:47;19.92;;;10.55;;
67248;SDS011;63247;54.300;18.592;2023-04-08T13:29:13;21.90;;;10.13;;
67248;SDS011;63247;54.300;18.592;2023-04-08T13:31:38;19.42;;;9.43;;
67248;SDS011;63247;54.300;18.592;2023-04-08T13:34:04;20.08;;;10.98;;
67248;SDS011;63247;54.300;18.592;2023-04-08T13:36:29;19.43;;;9.40;;
67248;SDS011;63247;54.300;18.592;2023-04-08T13:38:55;19.27;;;9.43;;
67248;SDS011;63247;54.300;18.592;2023-04-08T13:41:20;17.87;;;8.47;;
67248;SDS011;63247;54.300;18.592;2023-04-08T13:43:46;16.73;;;8.93;;
67248;SDS011;63247;54.300;18.592;2023-04-08T13:46:11;16.57;;;9.10;;
67248;SDS011;63247;54.300;18.592;2023-04-08T13:48:37;20.02;;;11.02;;
67248;SDS011;63247;54.300;18.592;2023-04-08T13:51:02;26.90;;;13.40;;
67248;SDS011;63247;54.300;18.592;2023-04-08T13:53:28;24.57;;;13.43;;
67248;SDS011;63247;54.300;18.592;2023-04-08T13:55:53;28.47;;;13.17;;
67248;SDS011;63247;54.300;18.592;2023-04-08T13:58:20;24.92;;;12.40;;
67248;SDS011;63247;54.300;18.592;2023-04-08T14:00:46;26.90;;;12.20;;
67248;SDS011;63247;54.300;18.592;2023-04-08T14:03:11;24.00;;;11.32;;
67248;SDS011;63247;54.300;18.592;2023-04-08T14:05:37;27.20;;;11.97;;
67248;SDS011;63247;54.300;18.592;2023-04-08T14:08:03;29.87;;;12.47;;
67248;SDS011;63247;54.300;18.592;2023-04-08T14:10:28;33.75;;;13.35;;
67248;SDS011;63247;54.300;18.592;2023-04-08T14:12:53;31.87;;;14.40;;
67248;SDS011;63247;54.300;18.592;2023-04-08T14:15:19;32.37;;;13.97;;
67248;SDS011;63247;54.300;18.592;2023-04-08T14:17:44;33.40;;;15.37;;
67248;SDS011;63247;54.300;18.592;2023-04-08T14:20:10;37.57;;;16.97;;
67248;SDS011;63247;54.300;18.592;2023-04-08T14:22:35;34.83;;;16.17;;
67248;SDS011;63247;54.300;18.592;2023-04-08T14:25:00;33.42;;;17.05;;
67248;SDS011;63247;54.300;18.592;2023-04-08T14:27:26;34.27;;;14.80;;
67248;SDS011;63247;54.300;18.592;2023-04-08T14:29:52;34.73;;;15.63;;
67248;SDS011;63247;54.300;18.592;2023-04-08T14:32:17;38.67;;;16.50;;